createdAt,value
2022-09-09T00:00:07.030Z,57.20
2022-09-09T00:01:07.025Z,40.80
2022-09-09T00:02:07.071Z,76.00
2022-09-09T00:03:07.227Z,98.20
2022-09-09T00:04:06.985Z,44.30
2022-09-09T00:05:07.001Z,40.10
2022-09-09T00:06:06.963Z,36.40
2022-09-09T00:07:06.956Z,36.90
2022-09-09T00:08:06.942Z,60.40
2022-09-09T00:09:06.942Z,46.70
2022-09-09T00:10:06.921Z,56.10
2022-09-09T00:11:06.908Z,59.60
2022-09-09T00:12:06.896Z,48.50
2022-09-09T00:13:06.886Z,57.80
2022-09-09T00:14:06.875Z,41.70
2022-09-09T00:15:06.863Z,55.10
2022-09-09T00:16:06.901Z,44.90
2022-09-09T00:17:06.843Z,44.20
2022-09-09T00:18:06.830Z,34.40
2022-09-09T00:19:06.819Z,35.10
2022-09-09T00:20:06.809Z,41.30
2022-09-09T00:21:06.822Z,59.90
2022-09-09T00:22:06.786Z,31.90
2022-09-09T00:23:06.777Z,45.60
2022-09-09T00:24:06.763Z,37.60
2022-09-09T00:25:06.755Z,40.40
2022-09-09T00:26:06.741Z,38.90
2022-09-09T00:27:06.730Z,36.20
2022-09-09T00:28:06.717Z,65.70
2022-09-09T00:29:06.721Z,49.80
2022-09-09T00:30:06.695Z,150.80
2022-09-09T00:31:06.711Z,171.30
2022-09-09T00:32:06.679Z,220.00
2022-09-09T00:33:07.871Z,112.70
2022-09-09T00:34:06.650Z,71.40
2022-09-09T00:35:06.641Z,176.50
2022-09-09T00:36:06.630Z,68.60
2022-09-09T00:37:06.643Z,55.00
2022-09-09T00:38:06.605Z,43.00
2022-09-09T00:39:06.595Z,51.50
2022-09-09T00:40:06.648Z,47.00
2022-09-09T00:41:06.572Z,59.20
2022-09-09T00:42:06.562Z,61.90
2022-09-09T00:43:06.551Z,45.30
2022-09-09T00:44:06.538Z,61.30
2022-09-09T00:45:06.529Z,42.60
2022-09-09T00:46:06.583Z,36.80
2022-09-09T00:47:06.506Z,40.00
2022-09-09T00:48:06.496Z,46.50
2022-09-09T00:49:06.482Z,97.00
2022-09-09T00:50:06.471Z,42.00
2022-09-09T00:51:06.461Z,42.60
2022-09-09T00:52:06.448Z,49.00
2022-09-09T00:53:06.473Z,50.10
2022-09-09T00:54:06.443Z,45.90
2022-09-09T00:55:06.416Z,36.90
2022-09-09T00:56:06.403Z,41.00
2022-09-09T00:57:06.393Z,78.20
2022-09-09T00:58:06.386Z,56.80
2022-09-09T00:59:06.372Z,50.70
2022-09-09T01:00:06.361Z,45.70
2022-09-09T01:01:06.419Z,49.40
2022-09-09T01:02:06.373Z,107.80
2022-09-09T01:03:06.333Z,53.20
2022-09-09T01:04:06.314Z,43.30
2022-09-09T01:05:06.307Z,41.80
2022-09-09T01:06:06.291Z,47.20
2022-09-09T01:07:06.283Z,43.10
2022-09-09T01:08:06.271Z,45.20
2022-09-09T01:09:06.284Z,51.10
2022-09-09T01:10:06.247Z,47.90
2022-09-09T01:11:06.238Z,65.70
2022-09-09T01:12:06.225Z,67.60
2022-09-09T01:13:06.217Z,48.70
2022-09-09T01:14:06.209Z,47.90
2022-09-09T01:15:06.198Z,46.20
2022-09-09T01:16:06.180Z,58.10
2022-09-09T01:17:06.226Z,77.70
2022-09-09T01:18:06.159Z,54.30
2022-09-09T01:19:06.150Z,46.30
2022-09-09T01:20:06.137Z,65.90
2022-09-09T01:21:06.126Z,99.00
2022-09-09T01:22:06.113Z,63.30
2022-09-09T01:23:06.104Z,55.80
2022-09-09T01:24:06.090Z,45.80
2022-09-09T01:25:06.107Z,52.70
2022-09-09T01:26:06.068Z,60.10
2022-09-09T01:27:06.062Z,59.40
2022-09-09T01:28:06.051Z,64.30
2022-09-09T01:29:06.039Z,50.30
2022-09-09T01:30:06.025Z,69.90
2022-09-09T01:31:06.117Z,53.60
2022-09-09T01:32:06.005Z,68.00
2022-09-09T01:33:05.993Z,85.60
2022-09-09T01:34:05.981Z,65.30
2022-09-09T01:35:05.972Z,83.70
2022-09-09T01:36:05.960Z,83.50
2022-09-09T01:37:05.950Z,98.90
2022-09-09T01:38:05.940Z,64.90
2022-09-09T01:39:05.931Z,92.70
2022-09-09T01:40:05.998Z,73.60
2022-09-09T01:41:05.930Z,51.90
2022-09-09T01:42:05.894Z,60.10
2022-09-09T01:43:05.884Z,66.80
2022-09-09T01:44:05.870Z,64.20
2022-09-09T01:45:05.862Z,55.70
2022-09-09T01:46:05.922Z,49.90
2022-09-09T01:47:05.840Z,50.00
2022-09-09T01:48:05.827Z,58.40
2022-09-09T01:49:05.818Z,51.40
2022-09-09T01:50:05.803Z,63.80
2022-09-09T01:51:05.795Z,49.10
2022-09-09T01:52:05.783Z,73.80
2022-09-09T01:53:05.772Z,57.60
2022-09-09T01:54:05.758Z,71.00
2022-09-09T01:55:05.749Z,72.20
2022-09-09T01:56:05.741Z,53.50
2022-09-09T01:57:05.751Z,58.70
2022-09-09T01:58:05.716Z,59.30
2022-09-09T01:59:05.706Z,58.30
2022-09-09T02:00:05.694Z,88.40
2022-09-09T02:01:05.713Z,82.60
2022-09-09T02:02:05.695Z,111.90
2022-09-09T02:03:05.663Z,86.20
2022-09-09T02:04:05.655Z,86.20
2022-09-09T02:05:05.639Z,67.70
2022-09-09T02:06:05.626Z,72.80
2022-09-09T02:07:06.016Z,57.60
2022-09-09T02:08:05.605Z,66.60
2022-09-09T02:09:05.597Z,69.20
2022-09-09T02:10:05.586Z,66.00
2022-09-09T02:11:05.576Z,80.70
2022-09-09T02:12:05.561Z,100.20
2022-09-09T02:13:05.575Z,78.00
2022-09-09T02:14:05.538Z,101.60
2022-09-09T02:15:05.530Z,82.80
2022-09-09T02:16:05.517Z,69.50
2022-09-09T02:17:05.591Z,81.50
2022-09-09T02:18:05.494Z,98.50
2022-09-09T02:19:05.487Z,67.60
2022-09-09T02:20:05.474Z,83.00
2022-09-09T02:21:05.466Z,67.80
2022-09-09T02:22:05.451Z,69.60
2022-09-09T02:23:05.493Z,84.70
2022-09-09T02:24:05.436Z,88.50
2022-09-09T02:25:05.420Z,73.40
2022-09-09T02:26:05.407Z,65.60
2022-09-09T02:27:05.396Z,78.80
2022-09-09T02:28:05.387Z,160.50
2022-09-09T02:29:05.401Z,103.40
2022-09-09T02:30:05.361Z,81.40
2022-09-09T02:31:05.453Z,71.60
2022-09-09T02:32:05.341Z,96.50
2022-09-09T02:33:05.331Z,81.90
2022-09-09T02:34:05.319Z,68.90
2022-09-09T02:35:05.310Z,70.60
2022-09-09T02:36:05.297Z,80.10
2022-09-09T02:37:05.291Z,68.60
2022-09-09T02:38:05.275Z,78.90
2022-09-09T02:39:05.266Z,79.90
2022-09-09T02:40:05.267Z,74.80
2022-09-09T02:41:05.243Z,69.10
2022-09-09T02:42:05.232Z,101.80
2022-09-09T02:43:05.222Z,126.20
2022-09-09T02:44:05.218Z,82.80
2022-09-09T02:45:05.225Z,71.40
2022-09-09T02:46:05.283Z,110.30
2022-09-09T02:47:05.178Z,80.00
2022-09-09T02:48:05.165Z,117.80
2022-09-09T02:49:05.157Z,124.70
2022-09-09T02:50:05.145Z,115.20
2022-09-09T02:51:05.134Z,82.80
2022-09-09T02:52:05.126Z,74.50
2022-09-09T02:53:05.114Z,88.30
2022-09-09T02:54:05.101Z,69.80
2022-09-09T02:55:05.091Z,99.20
2022-09-09T02:56:05.079Z,82.00
2022-09-09T02:57:05.072Z,95.90
2022-09-09T02:58:05.062Z,79.80
2022-09-09T02:59:05.054Z,70.30
2022-09-09T03:00:05.043Z,76.10
2022-09-09T03:01:05.111Z,77.10
2022-09-09T03:02:05.090Z,64.20
2022-09-09T03:03:05.007Z,92.80
2022-09-09T03:04:04.994Z,66.40
2022-09-09T03:05:04.993Z,76.30
2022-09-09T03:06:04.977Z,135.20
2022-09-09T03:07:04.959Z,118.00
2022-09-09T03:08:04.948Z,73.70
2022-09-09T03:09:04.937Z,65.00
2022-09-09T03:10:04.925Z,64.60
2022-09-09T03:11:04.923Z,62.10
2022-09-09T03:12:04.905Z,61.00
2022-09-09T03:13:04.895Z,69.50
2022-09-09T03:14:04.882Z,79.80
2022-09-09T03:15:04.873Z,82.80
2022-09-09T03:16:04.930Z,76.70
2022-09-09T03:17:04.879Z,65.90
2022-09-09T03:18:04.837Z,69.50
2022-09-09T03:19:04.829Z,69.90
2022-09-09T03:20:04.829Z,59.90
2022-09-09T03:21:04.852Z,71.80
2022-09-09T03:22:04.845Z,61.00
2022-09-09T03:23:04.912Z,59.80
2022-09-09T03:24:04.965Z,64.30
2022-09-09T03:25:04.890Z,60.80
2022-09-09T03:26:04.951Z,62.20
2022-09-09T03:27:04.743Z,59.30
2022-09-09T03:28:04.730Z,63.60
2022-09-09T03:29:04.720Z,62.80
2022-09-09T03:30:04.710Z,85.80
2022-09-09T03:31:04.709Z,77.00
2022-09-09T03:32:04.756Z,69.40
2022-09-09T03:33:04.704Z,80.40
2022-09-09T03:34:04.666Z,67.50
2022-09-09T03:35:04.656Z,84.30
2022-09-09T03:36:04.643Z,65.60
2022-09-09T03:37:04.633Z,78.70
2022-09-09T03:38:04.620Z,78.70
2022-09-09T03:39:04.613Z,79.60
2022-09-09T03:40:04.675Z,101.60
2022-09-09T03:41:04.591Z,75.40
2022-09-09T03:42:04.577Z,83.90
2022-09-09T03:43:04.567Z,84.90
2022-09-09T03:44:04.555Z,65.50
2022-09-09T03:45:04.549Z,72.00
2022-09-09T03:46:04.600Z,66.90
2022-09-09T03:47:04.523Z,96.70
2022-09-09T03:48:04.510Z,71.50
2022-09-09T03:49:04.526Z,84.40
2022-09-09T03:50:04.491Z,89.80
2022-09-09T03:51:04.479Z,74.00
2022-09-09T03:52:04.468Z,73.10
2022-09-09T03:53:04.458Z,79.40
2022-09-09T03:54:04.447Z,89.10
2022-09-09T03:55:04.433Z,96.30
2022-09-09T03:56:04.423Z,78.40
2022-09-09T03:57:04.411Z,74.10
2022-09-09T03:58:04.403Z,73.70
2022-09-09T03:59:04.390Z,74.70
2022-09-09T04:01:04.437Z,86.20
2022-09-09T04:02:04.441Z,92.40
2022-09-09T04:03:04.346Z,76.40
2022-09-09T04:04:04.358Z,128.10
2022-09-09T04:05:04.349Z,99.40
2022-09-09T04:06:04.312Z,75.00
2022-09-09T04:07:04.299Z,102.20
2022-09-09T04:08:04.295Z,68.60
2022-09-09T04:09:04.278Z,71.00
2022-09-09T04:10:04.266Z,78.30
2022-09-09T04:11:04.253Z,92.70
2022-09-09T04:12:04.245Z,79.90
2022-09-09T04:13:04.233Z,65.90
2022-09-09T04:14:04.223Z,87.40
2022-09-09T04:15:04.210Z,96.60
2022-09-09T04:16:04.227Z,85.90
2022-09-09T04:17:04.187Z,149.10
2022-09-09T04:18:04.181Z,95.70
2022-09-09T04:19:04.165Z,73.00
2022-09-09T04:20:04.154Z,68.80
2022-09-09T04:21:04.163Z,97.40
2022-09-09T04:22:04.132Z,107.70
2022-09-09T04:23:04.123Z,83.20
2022-09-09T04:24:04.109Z,95.60
2022-09-09T04:25:04.130Z,93.20
2022-09-09T04:26:04.095Z,109.10
2022-09-09T04:27:04.077Z,100.40
2022-09-09T04:28:04.067Z,100.00
2022-09-09T04:29:04.054Z,96.00
2022-09-09T04:30:04.044Z,134.60
2022-09-09T04:31:04.029Z,114.90
2022-09-09T04:32:04.087Z,102.90
2022-09-09T04:33:04.259Z,91.70
2022-09-09T04:34:04.001Z,96.30
2022-09-09T04:35:03.986Z,30.40
2022-09-09T04:36:04.231Z,41.50
2022-09-09T04:37:03.987Z,58.10
2022-09-09T04:38:03.955Z,70.70
2022-09-09T04:39:04.034Z,69.90
2022-09-09T04:40:04.081Z,130.70
2022-09-09T04:41:03.924Z,89.10
2022-09-09T04:42:03.911Z,86.60
2022-09-09T04:43:03.897Z,73.50
2022-09-09T04:44:03.890Z,171.00
2022-09-09T04:45:03.875Z,120.90
2022-09-09T04:46:03.877Z,82.70
2022-09-09T04:47:03.851Z,82.10
2022-09-09T04:48:03.843Z,80.40
2022-09-09T04:49:03.833Z,111.50
2022-09-09T04:50:03.820Z,85.60
2022-09-09T04:51:03.807Z,87.70
2022-09-09T04:52:03.798Z,88.90
2022-09-09T04:53:03.816Z,79.40
2022-09-09T04:54:03.781Z,102.40
2022-09-09T04:55:03.766Z,71.00
2022-09-09T04:56:03.757Z,95.80
2022-09-09T04:57:03.741Z,83.30
2022-09-09T04:58:03.735Z,117.80
2022-09-09T04:59:03.721Z,68.60
2022-09-09T05:00:03.712Z,94.30
2022-09-09T05:01:03.717Z,69.60
2022-09-09T05:02:03.769Z,65.30
2022-09-09T05:03:03.680Z,72.50
2022-09-09T05:04:03.672Z,99.00
2022-09-09T05:05:03.852Z,66.00
2022-09-09T05:06:03.642Z,123.80
2022-09-09T05:07:03.631Z,94.90
2022-09-09T05:08:03.629Z,117.40
2022-09-09T05:09:03.634Z,113.20
2022-09-09T05:10:03.600Z,86.10
2022-09-09T05:11:03.597Z,104.20
2022-09-09T05:12:03.575Z,87.60
2022-09-09T05:13:03.565Z,95.90
2022-09-09T05:14:03.553Z,142.50
2022-09-09T05:15:03.564Z,59.10
2022-09-09T05:16:03.597Z,67.80
2022-09-09T05:17:03.522Z,71.00
2022-09-09T05:18:03.513Z,61.80
2022-09-09T05:19:03.500Z,82.30
2022-09-09T05:20:06.610Z,76.70
2022-09-09T05:21:03.476Z,74.50
2022-09-09T05:22:03.469Z,99.60
2022-09-09T05:23:03.456Z,80.40
2022-09-09T05:24:03.444Z,72.50
2022-09-09T05:25:03.457Z,79.00
2022-09-09T05:26:03.429Z,74.80
2022-09-09T05:27:03.414Z,70.20
2022-09-09T05:28:03.398Z,56.10
2022-09-09T05:29:03.386Z,84.50
2022-09-09T05:30:03.378Z,80.00
2022-09-09T05:31:03.393Z,88.90
2022-09-09T05:32:03.455Z,72.70
2022-09-09T05:33:03.342Z,76.10
2022-09-09T05:34:03.334Z,112.90
2022-09-09T05:35:03.320Z,78.20
2022-09-09T05:36:03.309Z,73.40
2022-09-09T05:37:03.297Z,83.00
2022-09-09T05:38:03.290Z,116.40
2022-09-09T05:39:03.278Z,70.10
2022-09-09T05:40:03.382Z,90.20
2022-09-09T05:41:03.278Z,86.60
2022-09-09T05:42:03.244Z,93.50
2022-09-09T05:43:03.235Z,77.10
2022-09-09T05:44:03.233Z,128.10
2022-09-09T05:45:03.229Z,84.00
2022-09-09T05:46:03.201Z,87.30
2022-09-09T05:47:03.246Z,68.90
2022-09-09T05:48:03.184Z,74.80
2022-09-09T05:49:03.166Z,83.90
2022-09-09T05:50:03.159Z,71.60
2022-09-09T05:51:03.141Z,89.50
2022-09-09T05:52:03.132Z,83.90
2022-09-09T05:53:03.118Z,106.70
2022-09-09T05:54:03.108Z,124.00
2022-09-09T05:55:03.097Z,77.30
2022-09-09T05:56:03.102Z,67.80
2022-09-09T05:57:03.121Z,85.50
2022-09-09T05:58:03.067Z,69.90
2022-09-09T05:59:03.064Z,96.20
2022-09-09T06:00:03.049Z,57.40
2022-09-09T06:01:03.034Z,70.60
2022-09-09T06:02:03.136Z,76.80
2022-09-09T06:03:03.174Z,62.00
2022-09-09T06:04:03.006Z,78.60
2022-09-09T06:05:02.986Z,161.00
2022-09-09T06:06:02.977Z,128.10
2022-09-09T06:07:02.965Z,42.70
2022-09-09T06:08:02.979Z,52.80
2022-09-09T06:09:02.974Z,52.40
2022-09-09T06:10:02.933Z,89.20
2022-09-09T06:11:02.921Z,51.70
2022-09-09T06:12:02.913Z,117.60
2022-09-09T06:13:02.931Z,58.20
2022-09-09T06:14:02.900Z,42.60
2022-09-09T06:15:02.887Z,44.50
2022-09-09T06:16:02.940Z,49.70
2022-09-09T06:17:02.860Z,38.50
2022-09-09T06:18:02.856Z,43.60
2022-09-09T06:19:02.844Z,45.60
2022-09-09T06:20:02.848Z,30.90
2022-09-09T06:21:02.845Z,25.50
2022-09-09T06:22:02.805Z,43.80
2022-09-09T06:23:02.801Z,40.00
2022-09-09T06:24:02.782Z,46.10
2022-09-09T06:25:02.775Z,53.40
2022-09-09T06:26:02.760Z,50.20
2022-09-09T06:27:02.756Z,50.50
2022-09-09T06:28:02.739Z,63.90
2022-09-09T06:29:02.748Z,45.30
2022-09-09T06:30:02.715Z,44.60
2022-09-09T06:31:02.754Z,41.10
2022-09-09T06:32:02.792Z,44.30
2022-09-09T06:33:02.680Z,34.90
2022-09-09T06:34:02.676Z,56.50
2022-09-09T06:35:02.685Z,49.90
2022-09-09T06:36:02.666Z,39.70
2022-09-09T06:37:02.661Z,55.80
2022-09-09T06:38:02.623Z,46.50
2022-09-09T06:39:02.615Z,34.40
2022-09-09T06:40:02.768Z,37.20
2022-09-09T06:41:02.588Z,33.60
2022-09-09T06:42:02.590Z,40.10
2022-09-09T06:43:02.572Z,42.40
2022-09-09T06:44:02.563Z,29.70
2022-09-09T06:45:02.572Z,31.20
2022-09-09T06:46:02.542Z,31.40
2022-09-09T06:47:02.557Z,37.00
2022-09-09T06:48:02.520Z,39.60
2022-09-09T06:49:02.508Z,39.60
2022-09-09T06:50:02.494Z,32.10
2022-09-09T06:51:02.478Z,32.80
2022-09-09T06:52:02.474Z,26.80
2022-09-09T06:53:02.459Z,24.60
2022-09-09T06:54:02.449Z,26.30
2022-09-09T06:55:02.454Z,32.50
2022-09-09T06:56:02.451Z,16.80
2022-09-09T06:57:11.145Z,21.10
2022-09-09T06:58:03.429Z,19.50
2022-09-09T06:59:02.393Z,17.10
2022-09-09T07:00:02.382Z,17.00
2022-09-09T07:01:02.528Z,21.00
2022-09-09T07:02:02.446Z,18.30
2022-09-09T07:03:02.353Z,15.50
2022-09-09T07:04:02.343Z,14.60
2022-09-09T07:05:02.327Z,14.30
2022-09-09T07:06:02.318Z,14.10
2022-09-09T07:07:02.309Z,17.80
2022-09-09T07:08:02.296Z,16.30
2022-09-09T07:09:02.282Z,14.20
2022-09-09T07:10:02.276Z,11.40
2022-09-09T07:11:02.264Z,18.10
2022-09-09T07:12:02.254Z,14.10
2022-09-09T07:13:02.238Z,12.30
2022-09-09T07:14:02.237Z,11.50
2022-09-09T07:15:02.237Z,10.20
2022-09-09T07:16:02.280Z,10.70
2022-09-09T07:17:02.235Z,9.20
2022-09-09T07:18:02.226Z,10.20
2022-09-09T07:19:02.488Z,13.00
2022-09-09T07:20:02.163Z,11.90
2022-09-09T07:21:02.155Z,7.90
2022-09-09T07:22:02.144Z,12.70
2022-09-09T07:23:02.134Z,11.00
2022-09-09T07:24:02.124Z,12.40
2022-09-09T07:25:02.110Z,11.20
2022-09-09T07:26:02.101Z,11.00
2022-09-09T07:27:02.089Z,8.60
2022-09-09T07:28:02.081Z,9.70
2022-09-09T07:29:02.072Z,13.00
2022-09-09T07:30:02.057Z,9.70
2022-09-09T07:31:02.127Z,8.60
2022-09-09T07:32:02.044Z,10.30
2022-09-09T07:33:02.048Z,8.80
2022-09-09T07:34:02.017Z,9.90
2022-09-09T07:35:02.001Z,8.90
2022-09-09T07:36:01.990Z,8.30
2022-09-09T07:37:01.980Z,11.60
2022-09-09T07:38:01.972Z,9.80
2022-09-09T07:39:01.958Z,12.00
2022-09-09T07:40:02.066Z,8.30
2022-09-09T07:41:01.937Z,12.50
2022-09-09T07:42:01.930Z,8.10
2022-09-09T07:43:01.916Z,8.40
2022-09-09T07:44:02.047Z,8.50
2022-09-09T07:45:01.894Z,11.20
2022-09-09T07:46:01.923Z,11.90
2022-09-09T07:47:01.869Z,13.90
2022-09-09T07:48:01.862Z,13.30
2022-09-09T07:49:01.882Z,12.70
2022-09-09T07:50:01.840Z,17.40
2022-09-09T07:51:01.832Z,14.20
2022-09-09T07:52:01.866Z,18.20
2022-09-09T07:53:01.806Z,21.20
2022-09-09T07:54:01.797Z,13.90
2022-09-09T07:55:01.809Z,17.90
2022-09-09T07:56:03.935Z,14.80
2022-09-09T07:57:01.764Z,13.20
2022-09-09T07:58:01.757Z,14.70
2022-09-09T07:59:01.743Z,18.40
2022-09-09T08:00:01.737Z,17.50
2022-09-09T08:01:01.720Z,13.80
2022-09-09T08:02:01.810Z,12.50
2022-09-09T08:03:01.729Z,12.80
2022-09-09T08:04:01.693Z,13.10
2022-09-09T08:05:01.735Z,16.60
2022-09-09T08:06:01.673Z,17.60
2022-09-09T08:07:01.709Z,16.50
2022-09-09T08:08:01.647Z,32.70
2022-09-09T08:09:01.637Z,19.00
2022-09-09T08:10:01.628Z,13.80
2022-09-09T08:11:01.617Z,13.80
2022-09-09T08:12:01.607Z,15.10
2022-09-09T08:13:17.523Z,16.50
2022-09-09T08:14:02.805Z,19.40
2022-09-09T08:15:01.573Z,14.10
2022-09-09T08:16:01.588Z,16.40
2022-09-09T08:17:01.550Z,19.00
2022-09-09T08:18:01.541Z,20.80
2022-09-09T08:19:01.564Z,19.00
2022-09-09T08:20:01.703Z,14.30
2022-09-09T08:21:01.535Z,14.80
2022-09-09T08:22:01.509Z,14.90
2022-09-09T08:23:01.490Z,16.40
2022-09-09T08:24:01.475Z,17.00
2022-09-09T08:25:01.474Z,17.90
2022-09-09T08:26:01.453Z,16.00
2022-09-09T08:27:01.445Z,15.10
2022-09-09T08:28:01.431Z,13.90
2022-09-09T08:29:01.426Z,10.80
2022-09-09T08:30:01.431Z,11.40
2022-09-09T08:31:01.613Z,13.30
2022-09-09T08:32:01.393Z,11.60
2022-09-09T08:33:01.381Z,12.30
2022-09-09T08:34:01.466Z,11.90
2022-09-09T08:35:01.645Z,11.00
2022-09-09T08:36:01.348Z,14.50
2022-09-09T08:37:01.371Z,13.70
2022-09-09T08:38:01.325Z,10.70
2022-09-09T08:39:01.320Z,11.00
2022-09-09T08:40:01.362Z,11.20
2022-09-09T08:41:01.339Z,10.90
2022-09-09T08:42:01.342Z,12.60
2022-09-09T08:43:01.290Z,11.70
2022-09-09T08:44:01.277Z,10.60
2022-09-09T08:45:01.262Z,10.50
2022-09-09T08:46:01.320Z,12.30
2022-09-09T08:47:01.243Z,11.50
2022-09-09T08:48:01.218Z,15.50
2022-09-09T08:49:01.211Z,13.90
2022-09-09T08:50:01.196Z,11.70
2022-09-09T08:51:01.203Z,17.00
2022-09-09T08:52:01.185Z,13.90
2022-09-09T08:53:01.194Z,11.40
2022-09-09T08:54:01.155Z,14.80
2022-09-09T08:55:01.145Z,17.00
2022-09-09T08:56:01.132Z,14.10
2022-09-09T08:57:01.129Z,11.20
2022-09-09T08:58:01.110Z,15.00
2022-09-09T08:59:01.104Z,13.60
2022-09-09T09:00:01.096Z,9.80
2022-09-09T09:01:01.093Z,10.60
2022-09-09T09:02:01.286Z,12.60
2022-09-09T09:03:01.073Z,12.40
2022-09-09T09:04:01.049Z,13.60
2022-09-09T09:05:01.067Z,10.80
2022-09-09T09:06:01.025Z,11.30
2022-09-09T09:07:01.036Z,9.00
2022-09-09T09:08:01.003Z,9.80
2022-09-09T09:09:01.021Z,12.50
2022-09-09T09:10:00.985Z,9.60
2022-09-09T09:11:00.975Z,10.20
2022-09-09T09:12:00.960Z,10.20
2022-09-09T09:13:00.953Z,12.60
2022-09-09T09:14:00.941Z,10.60
2022-09-09T09:15:00.931Z,11.00
2022-09-09T09:16:00.962Z,8.70
2022-09-09T09:17:00.914Z,10.80
2022-09-09T09:18:00.903Z,9.50
2022-09-09T09:19:00.889Z,11.00
2022-09-09T09:20:00.877Z,8.30
2022-09-09T09:21:00.866Z,11.10
2022-09-09T09:22:00.852Z,10.70
2022-09-09T09:23:01.089Z,9.80
2022-09-09T09:24:00.839Z,9.50
2022-09-09T09:25:00.855Z,8.90
2022-09-09T09:26:00.807Z,7.40
2022-09-09T09:27:00.840Z,6.70
2022-09-09T09:28:00.813Z,9.20
2022-09-09T09:29:00.778Z,10.80
2022-09-09T09:30:22.870Z,11.80
2022-09-09T09:31:01.828Z,8.30
2022-09-09T09:32:00.797Z,9.70
2022-09-09T09:33:00.943Z,8.30
2022-09-09T09:34:00.729Z,6.60
2022-09-09T09:35:00.785Z,10.10
2022-09-09T09:36:00.836Z,11.80
2022-09-09T09:37:00.834Z,10.70
2022-09-09T09:41:00.913Z,10.10
2022-09-09T09:42:05.065Z,10.10
2022-09-09T09:43:00.784Z,10.70
2022-09-09T09:44:00.642Z,10.20
2022-09-09T09:45:01.173Z,7.80
2022-09-09T09:46:16.616Z,7.60
2022-09-09T09:47:01.661Z,8.30
2022-09-09T09:48:05.382Z,12.20
2022-09-09T09:49:00.572Z,9.60
2022-09-09T09:50:00.702Z,11.60
2022-09-09T09:51:00.538Z,8.00
2022-09-09T09:52:00.528Z,10.50
2022-09-09T09:53:00.518Z,7.20
2022-09-09T09:54:00.528Z,7.80
2022-09-09T09:55:04.029Z,5.40
2022-09-09T09:56:01.514Z,5.80
2022-09-09T09:57:00.508Z,7.00
2022-09-09T09:58:00.534Z,8.40
2022-09-09T09:59:00.710Z,7.90
2022-09-09T10:00:00.446Z,7.30
2022-09-09T10:01:00.439Z,6.50
2022-09-09T10:02:00.422Z,5.70
2022-09-09T10:03:00.418Z,7.30
2022-09-09T10:04:00.433Z,7.70
2022-09-09T10:05:00.530Z,8.60
2022-09-09T10:06:00.389Z,6.60
2022-09-09T10:07:00.377Z,8.00
2022-09-09T10:08:00.365Z,8.90
2022-09-09T10:09:00.353Z,6.60
2022-09-09T10:10:00.348Z,5.80
2022-09-09T10:11:00.336Z,8.60
2022-09-09T10:12:00.320Z,9.30
2022-09-09T10:13:00.331Z,7.10
2022-09-09T10:14:00.308Z,7.00
2022-09-09T10:15:00.310Z,9.50
2022-09-09T10:16:05.097Z,7.90
2022-09-09T10:17:00.274Z,6.70
2022-09-09T10:18:00.261Z,7.30
2022-09-09T10:19:00.248Z,6.60
2022-09-09T10:20:00.237Z,11.50
2022-09-09T10:21:00.226Z,9.00
2022-09-09T10:22:00.216Z,9.90
2022-09-09T10:23:00.206Z,8.70
2022-09-09T10:24:00.305Z,8.90
2022-09-09T10:25:00.208Z,10.60
2022-09-09T10:26:00.201Z,9.50
2022-09-09T10:27:00.181Z,7.30
2022-09-09T10:28:05.366Z,5.70
2022-09-09T10:29:00.171Z,6.40
2022-09-09T10:30:00.151Z,7.60
2022-09-09T10:31:00.256Z,10.00
2022-09-09T10:32:00.259Z,6.10
2022-09-09T10:33:00.283Z,7.00
2022-09-09T10:34:00.232Z,8.60
2022-09-09T10:35:00.177Z,6.30
2022-09-09T10:36:00.262Z,7.50
2022-09-09T10:37:00.263Z,8.10
2022-09-09T10:38:00.322Z,8.40
2022-09-09T10:39:00.252Z,9.90
2022-09-09T10:40:00.084Z,9.40
2022-09-09T10:41:00.044Z,12.30
2022-09-09T10:42:00.020Z,11.50
2022-09-09T10:43:00.007Z,9.00
2022-09-09T10:44:00.710Z,9.00
2022-09-09T10:45:00.020Z,8.60
2022-09-09T10:46:00.149Z,7.40
2022-09-09T10:47:01.765Z,12.40
2022-09-09T10:47:59.954Z,7.70
2022-09-09T10:48:59.946Z,6.80
2022-09-09T10:49:59.932Z,8.60
2022-09-09T10:51:03.366Z,7.60
2022-09-09T10:51:59.911Z,6.90
2022-09-09T10:53:00.512Z,10.00
2022-09-09T10:53:59.892Z,7.10
2022-09-09T10:54:59.880Z,9.30
2022-09-09T10:55:59.868Z,8.00
2022-09-09T10:56:59.862Z,11.40
2022-09-09T10:57:59.847Z,10.70
2022-09-09T10:58:59.840Z,9.50
2022-09-09T10:59:59.830Z,10.10
2022-09-09T11:01:00.025Z,7.70
2022-09-09T11:01:59.817Z,8.80
2022-09-09T11:02:59.798Z,9.20
2022-09-09T11:03:59.786Z,7.60
2022-09-09T11:04:59.775Z,6.80
2022-09-09T11:05:59.846Z,7.70
2022-09-09T11:06:59.755Z,10.30
2022-09-09T11:07:59.741Z,8.00
2022-09-09T11:08:59.729Z,8.50
2022-09-09T11:09:59.718Z,9.20
2022-09-09T11:10:59.709Z,8.30
2022-09-09T11:11:59.699Z,11.20
2022-09-09T11:12:59.689Z,11.20
2022-09-09T11:13:59.693Z,11.60
2022-09-09T11:14:59.711Z,8.60
2022-09-09T11:15:59.655Z,11.50
2022-09-09T11:16:59.747Z,12.70
2022-09-09T11:17:59.634Z,15.60
2022-09-09T11:18:59.626Z,15.20
2022-09-09T11:19:59.615Z,15.80
2022-09-09T11:20:59.607Z,11.50
2022-09-09T11:21:59.593Z,13.10
2022-09-09T11:22:59.584Z,10.50
2022-09-09T11:23:59.613Z,11.20
2022-09-09T11:24:59.564Z,12.00
2022-09-09T11:25:59.561Z,9.50
2022-09-09T11:26:59.542Z,11.00
2022-09-09T11:27:59.537Z,9.40
2022-09-09T11:29:04.096Z,11.60
2022-09-09T11:29:59.508Z,8.80
2022-09-09T11:30:59.648Z,9.50
2022-09-09T11:31:59.485Z,12.90
2022-09-09T11:32:59.513Z,8.00
2022-09-09T11:33:59.476Z,7.70
2022-09-09T11:34:59.457Z,7.40
2022-09-09T11:36:00.543Z,8.80
2022-09-09T11:36:59.585Z,14.90
2022-09-09T11:37:59.423Z,8.70
2022-09-09T11:38:59.452Z,8.00
2022-09-09T11:39:59.445Z,8.20
2022-09-09T11:40:59.393Z,9.40
2022-09-09T11:41:59.381Z,12.50
2022-09-09T11:42:59.371Z,9.70
2022-09-09T11:43:59.365Z,8.90
2022-09-09T11:44:59.352Z,12.50
2022-09-09T11:46:01.053Z,11.40
2022-09-09T11:46:59.330Z,11.00
2022-09-09T11:47:59.316Z,7.80
2022-09-09T11:48:59.329Z,14.00
2022-09-09T11:49:59.296Z,10.80
2022-09-09T11:50:59.286Z,8.00
2022-09-09T11:51:59.283Z,10.10
2022-09-09T11:52:59.268Z,9.70
2022-09-09T11:53:59.255Z,9.40
2022-09-09T11:54:59.250Z,7.90
2022-09-09T11:55:59.232Z,9.10
2022-09-09T11:56:59.230Z,11.00
2022-09-09T11:57:59.214Z,9.20
2022-09-09T11:58:59.203Z,8.60
2022-09-09T11:59:59.190Z,8.20
2022-09-09T12:00:59.182Z,10.30
2022-09-09T12:01:59.235Z,9.90
2022-09-09T12:02:59.159Z,8.80
2022-09-09T12:03:59.208Z,8.00
2022-09-09T12:04:59.239Z,9.50
2022-09-09T12:05:59.128Z,8.10
2022-09-09T12:06:59.116Z,10.40
2022-09-09T12:07:59.102Z,10.70
2022-09-09T12:08:59.094Z,10.00
2022-09-09T12:09:59.081Z,10.80
2022-09-09T12:10:59.073Z,11.00
2022-09-09T12:11:59.061Z,10.10
2022-09-09T12:12:59.051Z,10.40
2022-09-09T12:13:59.039Z,9.20
2022-09-09T12:14:59.032Z,9.60
2022-09-09T12:15:59.017Z,7.40
2022-09-09T12:16:59.137Z,8.50
2022-09-09T12:18:02.961Z,9.40
2022-09-09T12:18:58.989Z,12.60
2022-09-09T12:19:58.978Z,12.50
2022-09-09T12:20:58.986Z,12.60
2022-09-09T12:21:58.955Z,8.10
2022-09-09T12:22:58.943Z,8.20
2022-09-09T12:23:58.931Z,10.50
2022-09-09T12:24:58.921Z,9.50
2022-09-09T12:25:58.920Z,9.60
2022-09-09T12:26:58.900Z,11.20
2022-09-09T12:27:58.892Z,7.30
2022-09-09T12:28:58.876Z,8.60
2022-09-09T12:29:58.894Z,9.20
2022-09-09T12:30:58.938Z,9.60
2022-09-09T12:31:58.846Z,8.90
2022-09-09T12:32:58.836Z,9.40
2022-09-09T12:33:58.847Z,12.00
2022-09-09T12:34:58.812Z,9.50
2022-09-09T12:35:58.804Z,10.30
2022-09-09T12:36:58.824Z,10.70
2022-09-09T12:37:58.780Z,8.20
2022-09-09T12:38:58.774Z,7.60
2022-09-09T12:39:58.785Z,7.60
2022-09-09T12:40:58.750Z,8.90
2022-09-09T12:41:58.739Z,6.20
2022-09-09T12:42:58.741Z,7.30
2022-09-09T12:43:58.719Z,7.80
2022-09-09T12:44:58.703Z,10.00
2022-09-09T12:45:58.851Z,5.80
2022-09-09T12:46:58.682Z,9.30
2022-09-09T12:47:58.675Z,7.00
2022-09-09T12:48:58.663Z,12.20
2022-09-09T12:49:58.650Z,7.30
2022-09-09T12:50:58.638Z,5.00
2022-09-09T12:51:58.630Z,8.00
2022-09-09T12:52:58.643Z,7.30
2022-09-09T12:53:58.609Z,9.60
2022-09-09T12:54:58.616Z,8.10
2022-09-09T12:55:58.592Z,8.30
2022-09-09T12:56:58.574Z,10.20
2022-09-09T12:57:58.564Z,10.90
2022-09-09T12:58:58.555Z,12.10
2022-09-09T12:59:58.543Z,9.00